Time;durP1;ratioP1;P1;durP2;ratioP2;P2;SDS_P1;SDS_P2;PMS_P1;PMS_P2;Temp;Humidity;BMP_temperature;BMP_pressure;BME280_temperature;BME280_humidity;BME280_pressure;Samples;Min_cycle;Max_cycle;Signal;HPM_P1;HPM_P2
2024/01/16 00:02:09;;;;;;;5.57;3.30;;;;;;;-0.36;100.00;99490.13;5034973;28;20226;-73
2024/01/16 00:04:37;;;;;;;8.90;3.03;;;;;;;-0.33;100.00;99498.44;5032012;28;20207;-73
2024/01/16 00:07:04;;;;;;;4.93;2.90;;;;;;;-0.32;100.00;99498.13;5037881;28;20230;-73
2024/01/16 00:09:33;;;;;;;4.50;3.00;;;;;;;-0.31;100.00;99502.28;5038197;28;20199;-73
2024/01/16 00:12:00;;;;;;;7.80;3.07;;;;;;;-0.30;100.00;99509.00;5030848;28;20242;-74
2024/01/16 00:14:26;;;;;;;6.27;3.03;;;;;;;-0.27;100.00;99495.47;5033886;28;20211;-74
2024/01/16 00:16:52;;;;;;;6.33;2.97;;;;;;;-0.26;100.00;99508.16;5036307;28;20209;-74
2024/01/16 00:19:20;;;;;;;6.20;3.60;;;;;;;-0.25;100.00;99499.31;5034332;28;20207;-73
2024/01/16 00:21:46;;;;;;;4.97;3.00;;;;;;;-0.23;100.00;99506.84;5033577;28;20223;-74
2024/01/16 00:24:13;;;;;;;8.23;3.20;;;;;;;-0.23;100.00;99504.25;5033200;28;20565;-75
2024/01/16 00:26:40;;;;;;;7.30;3.53;;;;;;;-0.22;100.00;99510.97;5036398;28;20199;-73
2024/01/16 00:29:06;;;;;;;5.67;3.13;;;;;;;-0.21;100.00;99515.88;5037751;28;20211;-75
2024/01/16 00:31:33;;;;;;;7.80;3.17;;;;;;;-0.20;100.00;99514.81;5035046;28;20364;-73
2024/01/16 00:33:59;;;;;;;5.93;3.47;;;;;;;-0.20;100.00;99519.25;5039617;28;20207;-73
2024/01/16 00:36:27;;;;;;;4.97;2.90;;;;;;;-0.19;100.00;99526.72;5033851;28;20214;-73
2024/01/16 00:38:53;;;;;;;5.17;2.90;;;;;;;-0.17;100.00;99521.28;5037154;28;20211;-74
2024/01/16 00:41:19;;;;;;;3.80;2.70;;;;;;;-0.15;100.00;99532.16;5032876;28;20235;-73
2024/01/16 00:43:46;;;;;;;6.00;3.37;;;;;;;-0.16;100.00;99526.19;5039520;28;20202;-73
2024/01/16 00:46:13;;;;;;;6.93;2.80;;;;;;;-0.15;100.00;99530.31;5036904;28;20206;-73
2024/01/16 00:48:39;;;;;;;5.80;3.50;;;;;;;-0.14;100.00;99526.66;5038130;28;20194;-74
2024/01/16 00:51:06;;;;;;;6.83;2.93;;;;;;;-0.13;100.00;99514.47;5034141;28;20223;-73
2024/01/16 00:53:33;;;;;;;5.80;2.50;;;;;;;-0.12;100.00;99519.38;5032427;28;20203;-73
2024/01/16 00:56:00;;;;;;;8.80;3.07;;;;;;;-0.12;100.00;99524.56;5038697;28;20196;-73
2024/01/16 00:58:26;;;;;;;4.77;2.37;;;;;;;-0.11;100.00;99535.72;5031794;28;20200;-74
2024/01/16 01:00:52;;;;;;;3.47;2.20;;;;;;;-0.11;100.00;99533.13;5039975;28;20222;-73
2024/01/16 01:03:19;;;;;;;5.63;2.70;;;;;;;-0.10;100.00;99535.44;5035962;28;20203;-74
2024/01/16 01:05:45;;;;;;;3.73;2.60;;;;;;;-0.10;100.00;99532.84;5034725;28;20211;-73
2024/01/16 01:08:11;;;;;;;2.67;2.10;;;;;;;-0.10;100.00;99537.28;5033645;28;20688;-74
2024/01/16 01:10:39;;;;;;;3.93;2.70;;;;;;;-0.09;100.00;99542.16;5033944;28;20407;-73
2024/01/16 01:13:05;;;;;;;4.53;1.87;;;;;;;-0.08;100.00;99548.13;5036866;28;20211;-74
2024/01/16 01:15:31;;;;;;;3.40;2.20;;;;;;;-0.08;100.00;99548.13;5032166;28;20215;-75
2024/01/16 01:17:57;;;;;;;2.40;1.90;;;;;;;-0.09;100.00;99542.16;5037410;28;20222;-73
2024/01/16 01:20:24;;;;;;;3.07;2.00;;;;;;;-0.09;100.00;99542.16;5029905;28;20294;-73
2024/01/16 01:22:50;;;;;;;4.47;1.93;;;;;;;-0.08;100.00;99537.75;5034993;28;20208;-74
2024/01/16 01:25:16;;;;;;;3.97;2.23;;;;;;;-0.07;100.00;99541.88;5037680;28;20566;-75
2024/01/16 01:27:44;;;;;;;4.40;1.80;;;;;;;-0.07;100.00;99542.66;5036785;28;20195;-73
2024/01/16 01:30:11;;;;;;;3.10;1.87;;;;;;;-0.08;100.00;99554.09;5037072;28;20203;-73
2024/01/16 01:32:38;;;;;;;3.80;2.00;;;;;;;-0.06;100.00;99546.00;5035562;28;20295;-73
2024/01/16 01:35:05;;;;;;;3.13;2.10;;;;;;;-0.06;100.00;99548.59;5034550;28;20601;-74
2024/01/16 01:37:31;;;;;;;3.87;2.20;;;;;;;-0.07;100.00;99542.66;5035882;28;20203;-74
2024/01/16 01:39:57;;;;;;;2.53;1.67;;;;;;;-0.07;100.00;99545.25;5037616;28;20196;-73
2024/01/16 01:42:24;;;;;;;4.73;1.80;;;;;;;-0.07;100.00;99536.69;5034861;28;20226;-73
2024/01/16 01:44:52;;;;;;;2.23;1.70;;;;;;;-0.07;100.00;99544.47;5032144;28;20199;-73
2024/01/16 01:47:18;;;;;;;3.33;2.10;;;;;;;-0.08;100.00;99541.13;5039760;28;20207;-73
2024/01/16 01:49:44;;;;;;;4.40;2.10;;;;;;;-0.07;100.00;99552.25;5037267;28;20214;-74
2024/01/16 01:52:11;;;;;;;3.13;2.70;;;;;;;-0.06;100.00;99553.81;5036952;28;20211;-74
2024/01/16 01:54:38;;;;;;;5.33;3.13;;;;;;;-0.05;100.00;99563.91;5039668;28;20195;-74
2024/01/16 01:57:05;;;;;;;5.03;2.90;;;;;;;-0.03;100.00;99571.41;5040940;28;20205;-74
2024/01/16 01:59:32;;;;;;;3.40;2.70;;;;;;;0.00;100.00;99578.66;5041338;28;20202;-73
2024/01/16 02:02:00;;;;;;;3.93;2.70;;;;;;;0.02;100.00;99574.69;5036526;28;20238;-73
2024/01/16 02:04:28;;;;;;;6.43;3.43;;;;;;;0.03;100.00;99565.88;5055200;28;20203;-74
2024/01/16 02:06:56;;;;;;;4.53;3.53;;;;;;;0.04;100.00;99567.41;5038150;28;20219;-73
2024/01/16 02:09:23;;;;;;;6.50;3.57;;;;;;;0.03;100.00;99570.28;5037917;28;20322;-73
2024/01/16 02:11:49;;;;;;;4.57;3.23;;;;;;;0.00;100.00;99573.47;5038473;28;20262;-73
2024/01/16 02:14:16;;;;;;;7.37;3.40;;;;;;;-0.05;100.00;99568.34;5038942;28;20207;-74
2024/01/16 02:16:44;;;;;;;5.33;3.43;;;;;;;-0.06;100.00;99564.97;5037731;28;20195;-73
2024/01/16 02:19:12;;;;;;;6.47;3.97;;;;;;;-0.08;100.00;99567.06;5037159;28;20278;-74
2024/01/16 02:21:42;;;;;;;5.40;3.40;;;;;;;-0.08;100.00;99574.84;5039910;28;20227;-73
2024/01/16 02:24:12;;;;;;;5.67;3.23;;;;;;;-0.08;100.00;99576.66;5036515;28;20210;-73
2024/01/16 02:26:38;;;;;;;5.57;3.63;;;;;;;-0.08;100.00;99587.06;5035933;28;20226;-73
2024/01/16 02:29:05;;;;;;;5.60;3.57;;;;;;;-0.08;100.00;99577.47;5038180;28;20543;-73
2024/01/16 02:31:32;;;;;;;8.97;3.87;;;;;;;-0.08;100.00;99574.06;5037943;28;20211;-73
2024/01/16 02:33:58;;;;;;;4.27;3.17;;;;;;;-0.07;100.00;99581.59;5040996;28;20321;-73
2024/01/16 02:36:25;;;;;;;5.97;3.77;;;;;;;-0.07;100.00;99584.19;5042156;28;20255;-73
2024/01/16 02:38:51;;;;;;;5.60;3.50;;;;;;;-0.06;100.00;99587.53;5040433;28;20218;-74
2024/01/16 02:41:19;;;;;;;6.17;3.30;;;;;;;-0.04;100.00;99593.22;5037165;28;20231;-73
2024/01/16 02:43:45;;;;;;;9.33;3.57;;;;;;;-0.03;100.00;99586.97;5037593;28;20199;-74
2024/01/16 02:46:12;;;;;;;6.43;3.40;;;;;;;-0.01;100.00;99598.63;5038727;28;20582;-75
2024/01/16 02:48:39;;;;;;;7.47;3.20;;;;;;;0.01;100.00;99599.09;5039425;28;20211;-73
2024/01/16 02:51:06;;;;;;;6.03;3.23;;;;;;;0.01;100.00;99604.28;5037680;28;20781;-74
2024/01/16 02:53:32;;;;;;;6.80;3.10;;;;;;;0.04;100.00;99601.16;5037281;28;20744;-73
2024/01/16 02:55:59;;;;;;;9.33;3.60;;;;;;;0.06;100.00;99608.66;5036800;28;20199;-74
2024/01/16 02:58:27;;;;;;;5.57;3.30;;;;;;;0.09;100.00;99623.66;5037117;28;20694;-73
2024/01/16 03:00:53;;;;;;;5.13;3.00;;;;;;;0.11;100.00;99621.56;5036517;28;20219;-73
2024/01/16 03:03:20;;;;;;;5.67;3.20;;;;;;;0.12;100.00;99629.06;5035669;28;20206;-73
2024/01/16 03:05:46;;;;;;;6.73;3.23;;;;;;;0.13;100.00;99627.25;5037294;28;20760;-73
2024/01/16 03:08:13;;;;;;;4.13;3.00;;;;;;;0.15;100.00;99625.13;5039749;28;20692;-74
2024/01/16 03:10:39;;;;;;;4.20;2.97;;;;;;;0.15;100.00;99638.13;5039996;28;20219;-75
2024/01/16 03:13:06;;;;;;;7.07;3.57;;;;;;;0.15;100.00;99632.91;5040864;28;20210;-73
2024/01/16 03:15:34;;;;;;;8.60;3.13;;;;;;;0.16;100.00;99637.09;5038956;28;20254;-73
2024/01/16 03:18:01;;;;;;;5.73;3.60;;;;;;;0.16;100.00;99648.22;5034923;28;20199;-74
2024/01/16 03:20:27;;;;;;;6.40;3.27;;;;;;;0.16;100.00;99647.47;5034771;28;20215;-74
2024/01/16 03:22:54;;;;;;;8.07;3.10;;;;;;;0.17;100.00;99641.22;5037913;28;20694;-75
2024/01/16 03:25:21;;;;;;;5.83;3.30;;;;;;;0.17;100.00;99651.59;5037997;28;20210;-74
2024/01/16 03:27:47;;;;;;;8.27;3.40;;;;;;;0.17;100.00;99641.97;5038082;28;20385;-74
2024/01/16 03:30:13;;;;;;;5.13;3.23;;;;;;;0.17;100.00;99657.53;5035782;28;20218;-73
2024/01/16 03:32:40;;;;;;;6.07;3.40;;;;;;;0.18;100.00;99653.13;5036682;28;20184;-74
2024/01/16 03:35:08;;;;;;;5.10;3.63;;;;;;;0.19;100.00;99647.69;5035599;28;20197;-74
2024/01/16 03:37:34;;;;;;;7.30;3.00;;;;;;;0.20;100.00;99658.81;5037088;28;20195;-73
2024/01/16 03:40:01;;;;;;;4.00;2.90;;;;;;;0.19;100.00;99650.28;5033962;28;20204;-74
2024/01/16 03:42:27;;;;;;;8.00;3.83;;;;;;;0.19;100.00;99654.69;5052794;28;20223;-74
2024/01/16 03:44:54;;;;;;;4.93;3.03;;;;;;;0.19;100.00;99650.28;5036311;28;20218;-73
2024/01/16 03:47:20;;;;;;;5.13;3.30;;;;;;;0.21;100.00;99652.59;5039987;28;20669;-73
2024/01/16 03:49:48;;;;;;;10.30;3.20;;;;;;;0.21;100.00;99660.38;5038517;28;20208;-73
2024/01/16 03:52:14;;;;;;;5.67;2.90;;;;;;;0.18;100.00;99653.13;5035796;28;20285;-74
2024/01/16 03:54:40;;;;;;;5.60;2.83;;;;;;;0.17;100.00;99667.19;5033729;28;20200;-75
2024/01/16 03:57:07;;;;;;;5.10;2.63;;;;;;;0.19;100.00;99655.47;5034220;28;20203;-73
2024/01/16 03:59:33;;;;;;;4.53;2.57;;;;;;;0.17;100.00;99667.94;5034344;28;20231;-74
2024/01/16 04:02:01;;;;;;;6.17;2.97;;;;;;;0.18;100.00;99673.91;5031008;28;20230;-74
2024/01/16 04:04:27;;;;;;;3.23;2.47;;;;;;;0.18;100.00;99684.28;5034839;28;20622;-74
2024/01/16 04:06:55;;;;;;;4.70;2.90;;;;;;;0.16;100.00;99694.19;5036254;28;20566;-73
2024/01/16 04:09:21;;;;;;;8.37;2.80;;;;;;;0.17;100.00;99704.28;5034438;28;20769;-74
2024/01/16 04:11:50;;;;;;;5.53;2.90;;;;;;;0.17;100.00;99719.84;5033576;28;20311;-74
2024/01/16 04:14:17;;;;;;;5.63;2.80;;;;;;;0.17;100.00;99725.03;5033734;28;20296;-74
2024/01/16 04:16:43;;;;;;;2.80;2.40;;;;;;;0.16;100.00;99733.88;5036215;28;20643;-74
2024/01/16 04:19:09;;;;;;;7.57;2.73;;;;;;;0.15;100.00;99729.75;5035610;28;20205;-74
2024/01/16 04:21:37;;;;;;;5.40;2.60;;;;;;;0.14;100.00;99741.19;5035762;28;20215;-74
2024/01/16 04:24:05;;;;;;;5.13;2.60;;;;;;;0.15;100.00;99741.94;5038582;28;20230;-74
2024/01/16 04:26:31;;;;;;;5.77;2.90;;;;;;;0.14;100.00;99748.19;5036579;28;20198;-73
2024/01/16 04:28:58;;;;;;;6.43;2.83;;;;;;;0.13;100.00;99749.25;5036990;28;20211;-73
2024/01/16 04:31:24;;;;;;;5.60;3.30;;;;;;;0.13;100.00;99760.41;5036162;28;20640;-73
2024/01/16 04:33:51;;;;;;;4.23;3.07;;;;;;;0.13;100.00;99759.63;5041341;28;20195;-74
2024/01/16 04:36:17;;;;;;;4.83;2.70;;;;;;;0.12;100.00;99764.03;5038024;28;20274;-73
2024/01/16 04:38:43;;;;;;;6.00;2.43;;;;;;;0.08;100.00;99765.66;5038688;28;20206;-73
2024/01/16 04:41:11;;;;;;;5.30;1.90;;;;;;;0.02;100.00;99768.56;5035345;28;20227;-73
2024/01/16 04:43:37;;;;;;;2.63;2.00;;;;;;;0.01;100.00;99772.22;5036548;28;20199;-74
2024/01/16 04:46:04;;;;;;;3.27;1.60;;;;;;;-0.03;100.00;99774.59;5034044;28;20204;-74
2024/01/16 04:48:31;;;;;;;3.77;1.90;;;;;;;-0.08;100.00;99779.84;5036640;28;20191;-74
2024/01/16 04:50:57;;;;;;;2.43;1.60;;;;;;;-0.14;100.00;99780.91;5035185;28;20415;-73
2024/01/16 04:53:23;;;;;;;4.43;1.80;;;;;;;-0.16;100.00;99784.81;5033799;28;20199;-74
2024/01/16 04:55:50;;;;;;;3.30;2.07;;;;;;;-0.22;100.00;99784.13;5036984;28;20695;-73
2024/01/16 04:58:18;;;;;;;2.17;1.73;;;;;;;-0.24;100.00;99788.78;5036249;28;20195;-73
2024/01/16 05:00:45;;;;;;;1.77;1.50;;;;;;;-0.26;100.00;99784.91;5035394;28;20234;-73
2024/01/16 05:03:12;;;;;;;2.50;1.40;;;;;;;-0.31;100.00;99788.34;5038999;28;20215;-74
2024/01/16 05:05:38;;;;;;;2.47;1.73;;;;;;;-0.34;100.00;99788.13;5034757;28;20203;-74
2024/01/16 05:08:04;;;;;;;1.90;1.70;;;;;;;-0.38;100.00;99796.72;5036926;28;20207;-74
2024/01/16 05:10:31;;;;;;;2.80;1.70;;;;;;;-0.42;100.00;99796.47;5037413;28;20654;-74
2024/01/16 05:12:57;;;;;;;3.20;1.77;;;;;;;-0.47;100.00;99802.47;5033649;28;20200;-74
2024/01/16 05:15:25;;;;;;;2.33;1.67;;;;;;;-0.50;100.00;99804.84;5033464;28;20204;-74
2024/01/16 05:17:51;;;;;;;2.00;1.50;;;;;;;-0.55;100.00;99805.66;5031710;28;20207;-74
2024/01/16 05:20:18;;;;;;;1.57;1.33;;;;;;;-0.58;100.00;99796.88;5035030;28;20196;-73
2024/01/16 05:22:44;;;;;;;1.67;1.27;;;;;;;-0.62;100.00;99807.78;5032659;28;20231;-74
2024/01/16 05:25:10;;;;;;;2.33;1.20;;;;;;;-0.66;100.00;99814.53;5041783;28;20206;-73
2024/01/16 05:27:37;;;;;;;1.20;1.03;;;;;;;-0.67;100.00;99817.44;5040782;28;20211;-73
2024/01/16 05:30:04;;;;;;;1.93;1.40;;;;;;;-0.69;100.00;99821.34;5042062;28;20207;-74
2024/01/16 05:32:32;;;;;;;2.10;1.40;;;;;;;-0.71;100.00;99824.19;5041251;28;20223;-73
2024/01/16 05:34:58;;;;;;;3.33;1.47;;;;;;;-0.71;100.00;99831.97;5039814;28;20298;-73
2024/01/16 05:37:25;;;;;;;3.37;1.40;;;;;;;-0.73;100.00;99820.31;5042199;28;20224;-73
2024/01/16 05:39:51;;;;;;;3.53;2.20;;;;;;;-0.76;100.00;99829.41;5039341;28;20601;-73
2024/01/16 05:42:17;;;;;;;3.70;1.47;;;;;;;-0.76;100.00;99837.19;5040119;28;20230;-73
2024/01/16 05:44:44;;;;;;;1.57;1.37;;;;;;;-0.77;100.00;99833.03;5041491;28;20204;-74
2024/01/16 05:47:10;;;;;;;2.03;1.67;;;;;;;-0.77;100.00;99837.44;5041904;28;20208;-74
2024/01/16 05:49:38;;;;;;;2.53;1.53;;;;;;;-0.78;100.00;99838.50;5042973;28;20215;-73
2024/01/16 05:52:04;;;;;;;2.20;1.70;;;;;;;-0.82;100.00;99833.06;5040418;28;20242;-74
2024/01/16 05:54:31;;;;;;;1.50;1.37;;;;;;;-0.83;100.00;99831.50;5038317;28;20590;-73
2024/01/16 05:56:57;;;;;;;1.70;1.47;;;;;;;-0.88;100.00;99829.72;5036403;28;20207;-74
2024/01/16 05:59:23;;;;;;;1.40;1.30;;;;;;;-0.89;100.00;99837.75;5037993;28;20214;-73
2024/01/16 06:01:50;;;;;;;2.63;1.50;;;;;;;-0.93;100.00;99840.13;5042218;28;20234;-74
2024/01/16 06:04:16;;;;;;;2.30;1.90;;;;;;;-0.95;100.00;99844.03;5038826;28;20249;-74
2024/01/16 06:06:45;;;;;;;1.67;1.57;;;;;;;-1.00;100.00;99841.47;5040341;28;20199;-74
2024/01/16 06:09:13;;;;;;;2.20;1.70;;;;;;;-1.05;100.00;99844.06;5038853;28;20196;-74
2024/01/16 06:11:40;;;;;;;3.00;1.70;;;;;;;-1.10;100.00;99851.88;5039886;28;21092;-73
2024/01/16 06:14:07;;;;;;;3.67;1.90;;;;;;;-1.15;100.00;99854.47;5040833;28;20200;-74
2024/01/16 06:16:33;;;;;;;2.03;1.60;;;;;;;-1.20;100.00;99862.28;5041136;28;20210;-74
2024/01/16 06:18:59;;;;;;;2.30;1.53;;;;;;;-1.23;100.00;99859.44;5038784;28;20223;-73
2024/01/16 06:21:26;;;;;;;2.97;1.77;;;;;;;-1.27;100.00;99866.97;5038544;28;20237;-74
2024/01/16 06:23:54;;;;;;;1.77;1.40;;;;;;;-1.29;100.00;99876.06;5038084;28;20700;-74
2024/01/16 06:26:20;;;;;;;1.93;1.70;;;;;;;-1.31;100.00;99875.56;5036775;28;20199;-73
2024/01/16 06:28:46;;;;;;;2.63;1.90;;;;;;;-1.31;100.00;99876.31;5042706;28;20204;-73
2024/01/16 06:31:13;;;;;;;5.33;1.93;;;;;;;-1.28;100.00;99882.78;5040546;28;20724;-73
2024/01/16 06:33:39;;;;;;;4.73;2.20;;;;;;;-1.26;100.00;99881.47;5039379;28;20204;-73
2024/01/16 06:36:07;;;;;;;3.93;2.17;;;;;;;-1.23;100.00;99884.28;5040367;28;20211;-74
2024/01/16 06:38:33;;;;;;;3.30;2.30;;;;;;;-1.18;100.00;99895.69;5039142;28;20196;-74
2024/01/16 06:41:01;;;;;;;3.70;2.17;;;;;;;-1.15;100.00;99906.28;5036584;28;20223;-73
2024/01/16 06:43:28;;;;;;;2.77;1.90;;;;;;;-1.11;100.00;99904.72;5039740;28;20287;-73
2024/01/16 06:45:54;;;;;;;2.40;1.70;;;;;;;-1.05;100.00;99908.84;5041999;28;20214;-73
2024/01/16 06:48:20;;;;;;;3.07;2.10;;;;;;;-0.99;100.00;99917.38;5040529;28;20203;-74
2024/01/16 06:50:47;;;;;;;3.17;1.63;;;;;;;-0.95;100.00;99921.00;5039942;28;20230;-75
2024/01/16 06:53:13;;;;;;;5.50;2.20;;;;;;;-0.93;100.00;99924.09;5040807;28;20207;-74
2024/01/16 06:55:40;;;;;;;5.00;1.97;;;;;;;-0.90;100.00;99926.91;5039831;28;20192;-75
2024/01/16 06:58:09;;;;;;;3.47;2.00;;;;;;;-0.88;100.00;99935.97;5041331;28;20215;-74
2024/01/16 07:00:35;;;;;;;3.10;1.93;;;;;;;-0.86;100.00;99938.31;5038775;28;20276;-74
2024/01/16 07:03:03;;;;;;;3.40;2.03;;;;;;;-0.86;100.00;99936.47;5037212;28;20218;-74
2024/01/16 07:05:30;;;;;;;2.00;1.80;;;;;;;-0.88;100.00;99937.03;5040407;28;20206;-73
2024/01/16 07:07:56;;;;;;;3.57;2.20;;;;;;;-0.89;100.00;99938.06;5040959;28;20249;-73
2024/01/16 07:10:24;;;;;;;5.13;2.10;;;;;;;-0.95;100.00;99934.72;5042426;28;20700;-75
2024/01/16 07:12:51;;;;;;;4.27;2.13;;;;;;;-1.02;100.00;99939.41;5041416;28;20222;-74
2024/01/16 07:15:19;;;;;;;2.20;1.97;;;;;;;-1.08;100.00;99937.88;5041502;28;20869;-73
2024/01/16 07:17:45;;;;;;;2.40;2.03;;;;;;;-1.14;100.00;99946.69;5039053;28;20207;-73
2024/01/16 07:20:12;;;;;;;2.23;1.70;;;;;;;-1.21;100.00;99951.38;5039472;28;20551;-75
2024/01/16 07:22:39;;;;;;;3.50;1.97;;;;;;;-1.24;100.00;99961.50;5040977;28;20214;-73
2024/01/16 07:25:06;;;;;;;2.47;1.93;;;;;;;-1.28;100.00;99957.88;5039994;28;20257;-73
2024/01/16 07:27:32;;;;;;;4.03;2.47;;;;;;;-1.32;100.00;99965.41;5039345;28;20208;-73
2024/01/16 07:29:58;;;;;;;3.83;2.13;;;;;;;-1.33;100.00;99974.22;5040440;28;20560;-74
2024/01/16 07:32:26;;;;;;;2.97;2.20;;;;;;;-1.31;100.00;99984.31;5041607;28;20898;-74
2024/01/16 07:34:52;;;;;;;3.47;2.47;;;;;;;-1.30;100.00;99998.81;5040857;28;20195;-73
2024/01/16 07:37:19;;;;;;;3.27;2.30;;;;;;;-1.26;100.00;100005.78;5042571;28;20207;-74
2024/01/16 07:39:45;;;;;;;3.90;3.10;;;;;;;-1.23;100.00;100007.84;5040664;28;20207;-73
2024/01/16 07:42:12;;;;;;;5.53;2.53;;;;;;;-1.19;100.00;100011.44;5039511;28;21041;-75
2024/01/16 07:44:38;;;;;;;4.27;2.60;;;;;;;-1.16;100.00;100008.34;5042791;28;20210;-74
2024/01/16 07:47:05;;;;;;;3.43;2.40;;;;;;;-1.12;100.00;100006.78;5038969;28;20252;-74
2024/01/16 07:49:32;;;;;;;4.90;2.00;;;;;;;-1.08;100.00;100022.59;5041576;28;20195;-74
2024/01/16 07:51:59;;;;;;;4.07;2.40;;;;;;;-1.05;100.00;100025.41;5041046;28;20223;-73
2024/01/16 07:54:25;;;;;;;6.10;3.23;;;;;;;-1.01;100.00;100039.41;5042239;28;20562;-73
2024/01/16 07:56:52;;;;;;;5.17;2.37;;;;;;;-0.98;100.00;100031.88;5039539;28;20700;-74
2024/01/16 07:59:18;;;;;;;5.77;2.73;;;;;;;-0.93;100.00;100031.88;5041186;28;20595;-74
2024/01/16 08:01:45;;;;;;;3.33;2.30;;;;;;;-0.89;100.00;100029.53;5037782;28;20262;-74
2024/01/16 08:04:12;;;;;;;4.30;2.97;;;;;;;-0.84;100.00;100032.09;5041117;28;20227;-73
2024/01/16 08:06:39;;;;;;;7.20;2.97;;;;;;;-0.79;100.00;100031.31;5036981;28;20203;-73
2024/01/16 08:09:06;;;;;;;4.93;2.47;;;;;;;-0.79;100.00;100041.69;5039330;28;20203;-74
2024/01/16 08:11:35;;;;;;;4.90;2.90;;;;;;;-0.78;100.00;100051.78;5041490;28;20212;-74
2024/01/16 08:14:02;;;;;;;3.60;2.63;;;;;;;-0.77;100.00;100051.53;5038279;28;20207;-74
2024/01/16 08:16:28;;;;;;;5.07;3.07;;;;;;;-0.72;100.00;100055.94;5039845;28;20184;-74
2024/01/16 08:18:54;;;;;;;2.73;2.20;;;;;;;-0.67;100.00;100053.31;5037893;28;20203;-75
2024/01/16 08:21:21;;;;;;;5.00;2.60;;;;;;;-0.61;100.00;100058.22;5039173;28;20701;-75
2024/01/16 08:23:48;;;;;;;3.90;2.40;;;;;;;-0.55;100.00;100056.38;5036600;28;20912;-74
2024/01/16 08:26:15;;;;;;;4.07;2.53;;;;;;;-0.51;100.00;100057.41;5038390;28;20227;-74
2024/01/16 08:28:41;;;;;;;5.40;2.70;;;;;;;-0.48;100.00;100064.66;5038900;28;20214;-73
2024/01/16 08:31:07;;;;;;;13.47;8.00;;;;;;;-0.47;100.00;100068.03;5042789;28;20231;-74
2024/01/16 08:33:34;;;;;;;7.20;3.33;;;;;;;-0.43;100.00;100075.00;5035613;28;20199;-73
2024/01/16 08:36:00;;;;;;;19.87;11.43;;;;;;;-0.41;100.00;100062.56;5040681;28;20211;-73
2024/01/16 08:38:26;;;;;;;8.87;5.43;;;;;;;-0.33;100.00;100069.78;5039277;28;20199;-74
2024/01/16 08:40:54;;;;;;;9.10;3.10;;;;;;;-0.28;100.00;100067.16;5039083;28;20229;-73
2024/01/16 08:43:20;;;;;;;5.67;3.47;;;;;;;-0.20;100.00;100061.44;5039761;28;20219;-74
2024/01/16 08:45:47;;;;;;;6.37;3.50;;;;;;;-0.11;100.00;100067.59;5041450;28;20199;-73
2024/01/16 08:48:15;;;;;;;6.30;3.63;;;;;;;-0.03;100.00;100075.59;5038332;28;20659;-74
2024/01/16 08:50:41;;;;;;;5.50;3.37;;;;;;;0.05;100.00;100069.84;5041066;28;20900;-75
2024/01/16 08:53:08;;;;;;;5.93;3.63;;;;;;;0.16;100.00;100073.16;5036050;28;20191;-74
2024/01/16 08:55:34;;;;;;;5.93;3.50;;;;;;;0.25;100.00;100076.72;5040115;28;20543;-74
2024/01/16 08:58:02;;;;;;;6.33;3.60;;;;;;;0.31;100.00;100081.63;5041091;28;20211;-74
2024/01/16 09:00:29;;;;;;;7.07;3.40;;;;;;;0.38;100.00;100081.31;5042496;28;20203;-74
2024/01/16 09:02:55;;;;;;;9.03;4.33;;;;;;;0.43;100.00;100083.88;5044029;28;20211;-74
2024/01/16 09:05:25;;;;;;;9.50;4.43;;;;;;;0.44;100.00;100082.81;5044795;28;20245;-75
2024/01/16 09:07:52;;;;;;;6.80;4.30;;;;;;;0.43;100.00;100087.22;5042995;28;20662;-74
2024/01/16 09:10:18;;;;;;;9.63;4.70;;;;;;;0.45;100.00;100077.38;5043043;28;22165;-74
2024/01/16 09:12:45;;;;;;;8.23;4.17;;;;;;;0.45;100.00;100085.16;5040532;28;20195;-74
2024/01/16 09:15:13;;;;;;;9.77;5.47;;;;;;;0.46;100.00;100083.31;5041028;28;20265;-73
2024/01/16 09:17:40;;;;;;;6.40;4.70;;;;;;;0.43;100.00;100078.69;5043651;28;20416;-73
2024/01/16 09:20:08;;;;;;;6.10;3.67;;;;;;;0.44;100.00;100090.63;5044462;28;20199;-74
2024/01/16 09:22:34;;;;;;;6.23;3.60;;;;;;;0.43;100.00;100084.63;5041632;28;20216;-75
2024/01/16 09:25:01;;;;;;;5.43;3.10;;;;;;;0.45;100.00;100086.97;5043507;28;20208;-74
2024/01/16 09:27:27;;;;;;;6.97;3.77;;;;;;;0.42;100.00;100092.72;5040527;28;20199;-74
2024/01/16 09:29:53;;;;;;;5.93;4.07;;;;;;;0.41;100.00;100093.75;5041300;28;20701;-74
2024/01/16 09:32:21;;;;;;;12.27;8.17;;;;;;;0.38;100.00;100087.28;5045050;28;20725;-74
2024/01/16 09:34:48;;;;;;;8.10;6.03;;;;;;;0.37;100.00;100087.56;5044701;28;20282;-73
2024/01/16 09:37:14;;;;;;;11.87;9.20;;;;;;;0.38;100.00;100096.91;5043533;28;20283;-74
2024/01/16 09:39:41;;;;;;;9.27;6.67;;;;;;;0.38;100.00;100104.69;5043268;28;20225;-74
2024/01/16 09:42:07;;;;;;;4.43;3.90;;;;;;;0.41;100.00;100102.31;5055023;28;20294;-74
2024/01/16 09:44:35;;;;;;;5.67;4.53;;;;;;;0.50;100.00;100105.13;5053090;28;20218;-74
2024/01/16 09:47:03;;;;;;;5.23;4.63;;;;;;;0.57;100.00;100105.59;5050781;28;20214;-74
2024/01/16 09:49:31;;;;;;;6.60;4.00;;;;;;;0.62;100.00;100101.13;5047245;28;20645;-74
2024/01/16 09:51:59;;;;;;;6.07;3.27;;;;;;;0.69;100.00;100111.22;5047623;28;20722;-74
2024/01/16 09:54:26;;;;;;;4.47;3.07;;;;;;;0.77;100.00;100108.81;5048124;28;20259;-74
2024/01/16 09:56:56;;;;;;;9.03;6.53;;;;;;;0.82;100.00;100111.38;5048596;28;20207;-74
2024/01/16 09:59:23;;;;;;;8.53;6.20;;;;;;;0.91;100.00;100114.16;5045060;28;20652;-74
2024/01/16 10:01:52;;;;;;;3.30;2.53;;;;;;;0.93;100.00;100114.66;5048581;28;20273;-74
2024/01/16 10:04:18;;;;;;;3.43;2.50;;;;;;;0.96;100.00;100111.50;5043946;28;20222;-74
2024/01/16 10:06:47;;;;;;;3.03;2.27;;;;;;;0.98;100.00;100120.59;5046851;28;20211;-74
2024/01/16 10:09:13;;;;;;;3.73;1.80;;;;;;;1.01;100.00;100124.47;5048556;28;20320;-74
2024/01/16 10:11:41;;;;;;;4.77;2.03;;;;;;;1.03;100.00;100120.53;5046504;28;20235;-74
2024/01/16 10:14:07;;;;;;;4.00;2.83;;;;;;;1.08;100.00;100124.91;5049368;28;20199;-74
2024/01/16 10:16:58;;;;;;;3.23;2.93;;;;;;;1.16;100.00;100132.91;5048025;28;20203;-74
2024/01/16 10:19:25;;;;;;;4.93;2.50;;;;;;;1.21;100.00;100132.09;5052380;28;20219;-73
2024/01/16 10:21:53;;;;;;;3.17;2.67;;;;;;;1.27;100.00;100136.19;5047049;28;20224;-75
2024/01/16 10:24:19;;;;;;;2.40;2.00;;;;;;;1.27;100.00;100130.97;5045824;28;20290;-74
2024/01/16 10:26:46;;;;;;;2.90;2.00;;;;;;;1.26;100.00;100137.25;5048171;28;21102;-75
2024/01/16 10:29:12;;;;;;;5.23;2.67;;;;;;;1.26;100.00;100137.25;5042444;28;20200;-74
2024/01/16 10:31:40;;;;;;;2.73;2.47;;;;;;;1.26;100.00;100132.03;5040688;28;20689;-75
2024/01/16 10:34:20;;;;;;;3.00;2.33;;;;;;;1.27;100.00;100138.78;5036804;28;20195;-75
2024/01/16 10:36:46;;;;;;;4.20;3.60;;;;;;;1.30;100.00;100141.59;5042942;28;20202;-74
2024/01/16 10:39:15;;;;;;;3.90;3.60;;;;;;;1.28;100.00;100145.53;5039097;28;20203;-74
2024/01/16 10:41:42;;;;;;;5.63;4.90;;;;;;;1.32;100.00;100149.13;5044494;28;20226;-74
2024/01/16 10:44:09;;;;;;;4.67;3.60;;;;;;;1.32;100.00;100149.13;5039958;28;20234;-75
2024/01/16 10:46:37;;;;;;;3.87;3.47;;;;;;;1.32;100.00;100147.31;5039882;28;20207;-75
2024/01/16 10:49:04;;;;;;;5.10;3.20;;;;;;;1.30;100.00;100152.00;5039956;28;20203;-74
2024/01/16 10:51:32;;;;;;;5.73;2.43;;;;;;;1.31;100.00;100150.94;5038189;28;20285;-73
2024/01/16 10:54:00;;;;;;;4.50;3.27;;;;;;;1.30;100.00;100151.25;5041417;28;21023;-74
2024/01/16 10:56:29;;;;;;;5.30;3.80;;;;;;;1.31;100.00;100150.19;5040229;28;20215;-74
2024/01/16 10:59:02;;;;;;;7.13;2.57;;;;;;;1.28;100.00;100148.13;5036353;28;20211;-74
2024/01/16 11:01:29;;;;;;;3.63;2.77;;;;;;;1.29;100.00;100144.47;5040923;28;20231;-73
2024/01/16 11:03:57;;;;;;;5.07;3.00;;;;;;;1.32;100.00;100146.53;5037029;28;20220;-74
2024/01/16 11:06:24;;;;;;;5.07;2.77;;;;;;;1.36;100.00;100152.75;5037249;28;20215;-74
2024/01/16 11:08:51;;;;;;;6.57;2.63;;;;;;;1.38;100.00;100153.25;5043094;28;20213;-74
2024/01/16 11:11:18;;;;;;;6.17;3.13;;;;;;;1.42;100.00;100165.44;5038620;28;20223;-74
2024/01/16 11:13:47;;;;;;;4.50;1.97;;;;;;;1.44;100.00;100159.94;5039280;28;20203;-74
2024/01/16 11:16:13;;;;;;;3.70;2.00;;;;;;;1.46;100.00;100165.66;5036681;28;20206;-74
2024/01/16 11:18:40;;;;;;;7.40;2.57;;;;;;;1.49;100.00;100167.69;5040268;28;20268;-74
2024/01/16 11:21:09;;;;;;;5.27;2.50;;;;;;;1.50;100.00;100167.44;5043604;28;20219;-74
2024/01/16 11:23:36;;;;;;;2.67;2.10;;;;;;;1.51;100.00;100170.81;5035790;28;20607;-74
2024/01/16 11:26:25;;;;;;;6.30;2.00;;;;;;;1.51;100.00;100170.81;5041010;28;20621;-74